Time;durP1;ratioP1;P1;durP2;ratioP2;P2;SDS_P1;SDS_P2;PMS_P1;PMS_P2;Temp;Humidity;BMP_temperature;BMP_pressure;BME280_temperature;BME280_humidity;BME280_pressure;Samples;Min_cycle;Max_cycle;Signal;HPM_P1;HPM_P2
2023/03/28 00:00:01;;;;;;;4.17;0.70;;;1.80;99.90;;;;;;5007084;28;20202;-53
2023/03/28 00:02:38;;;;;;;1.33;0.60;;;1.80;99.90;;;;;;5010287;28;20213;-51
2023/03/28 00:05:06;;;;;;;9.53;1.03;;;1.80;99.90;;;;;;5006959;28;20543;-53
2023/03/28 00:07:33;;;;;;;2.53;0.63;;;1.80;99.90;;;;;;5001419;28;20223;-55
2023/03/28 00:10:00;;;;;;;4.80;0.73;;;1.80;99.90;;;;;;5008702;28;20218;-53
2023/03/28 00:12:29;;;;;;;2.83;0.60;;;1.70;99.90;;;;;;5015147;28;20191;-52
2023/03/28 00:14:57;;;;;;;3.63;0.70;;;1.70;99.90;;;;;;5010721;28;20278;-54
2023/03/28 00:17:24;;;;;;;7.40;0.93;;;1.70;99.90;;;;;;5008762;28;20223;-51
2023/03/28 00:19:52;;;;;;;2.90;0.70;;;1.60;99.90;;;;;;5015661;28;20195;-53
2023/03/28 00:22:20;;;;;;;4.90;0.97;;;1.60;99.90;;;;;;4998728;28;20804;-50
2023/03/28 00:24:47;;;;;;;4.90;0.80;;;1.60;99.90;;;;;;5018272;28;20708;-51
2023/03/28 00:27:14;;;;;;;4.73;0.70;;;1.60;99.90;;;;;;5008948;28;20207;-53
2023/03/28 00:29:43;;;;;;;2.70;0.80;;;1.60;99.90;;;;;;5011657;28;20214;-51
2023/03/28 00:32:10;;;;;;;5.27;0.70;;;1.50;99.90;;;;;;5009669;28;20200;-54
2023/03/28 00:34:37;;;;;;;4.87;0.97;;;1.50;99.90;;;;;;5048620;28;20230;-53
2023/03/28 00:37:04;;;;;;;2.73;0.60;;;1.50;99.90;;;;;;4998849;28;20214;-54
2023/03/28 00:39:32;;;;;;;1.60;0.67;;;1.50;99.90;;;;;;5017687;28;20196;-52
2023/03/28 00:42:01;;;;;;;5.27;0.70;;;1.50;99.90;;;;;;5006546;28;20250;-51
2023/03/28 00:44:45;;;;;;;5.37;0.80;;;1.50;99.90;;;;;;5013930;28;20192;-50
2023/03/28 00:47:19;;;;;;;0.87;0.30;;;1.40;99.90;;;;;;5003765;28;20273;-55
2023/03/28 00:49:49;;;;;;;3.17;0.90;;;1.40;99.90;;;;;;5013659;28;20211;-54
2023/03/28 00:52:18;;;;;;;2.67;0.80;;;1.40;99.90;;;;;;4996189;28;20207;-52
2023/03/28 00:54:46;;;;;;;2.03;0.40;;;1.40;99.90;;;;;;5014681;28;21061;-51
2023/03/28 00:57:14;;;;;;;2.43;0.70;;;1.40;99.90;;;;;;5010123;28;20217;-54
2023/03/28 00:59:41;;;;;;;2.83;0.43;;;1.30;99.90;;;;;;5016811;28;20206;-51
2023/03/28 01:02:11;;;;;;;3.00;0.83;;;1.30;99.90;;;;;;5013000;28;20701;-52
2023/03/28 01:05:02;;;;;;;3.27;0.90;;;1.30;99.90;;;;;;5015535;28;20225;-54
2023/03/28 01:07:34;;;;;;;3.50;0.80;;;1.20;99.90;;;;;;4991913;28;22365;-51
2023/03/28 01:10:04;;;;;;;2.90;0.87;;;1.20;99.90;;;;;;5007760;28;20627;-52
2023/03/28 01:12:32;;;;;;;2.53;0.50;;;1.20;99.90;;;;;;5006893;28;20219;-53
2023/03/28 01:15:01;;;;;;;1.17;0.30;;;1.20;99.90;;;;;;5006522;28;20279;-51
2023/03/28 01:17:40;;;;;;;1.50;0.50;;;1.10;99.90;;;;;;5004259;28;20218;-53
2023/03/28 01:20:38;;;;;;;3.60;0.53;;;1.10;99.90;;;;;;5006901;28;20282;-52
2023/03/28 01:23:28;;;;;;;2.43;0.67;;;1.10;99.90;;;;;;4984021;28;20307;-54
2023/03/28 01:26:32;;;;;;;1.30;0.40;;;1.10;99.90;;;;;;5020087;28;20207;-52
2023/03/28 01:29:47;;;;;;;1.10;0.57;;;1.00;99.90;;;;;;5016527;28;20226;-54
2023/03/28 01:32:47;;;;;;;1.93;0.60;;;1.00;99.90;;;;;;5041052;28;20200;-53
2023/03/28 01:35:44;;;;;;;0.93;0.50;;;0.90;99.90;;;;;;5009466;28;20760;-51
2023/03/28 01:38:19;;;;;;;1.80;0.37;;;0.90;99.90;;;;;;4995486;28;20222;-53
2023/03/28 01:40:54;;;;;;;0.97;0.30;;;0.90;99.90;;;;;;5018109;28;20205;-50
2023/03/28 01:43:34;;;;;;;3.17;0.40;;;0.80;99.90;;;;;;5003924;28;20206;-52
2023/03/28 01:46:07;;;;;;;1.17;0.30;;;0.80;99.90;;;;;;5015402;28;20196;-54
2023/03/28 01:48:46;;;;;;;1.00;0.50;;;0.80;99.90;;;;;;5007286;28;20277;-54
2023/03/28 01:51:22;;;;;;;2.17;0.53;;;0.80;99.90;;;;;;5011588;28;20210;-54
2023/03/28 01:53:57;;;;;;;2.70;0.50;;;0.70;99.90;;;;;;4998983;28;20210;-53
2023/03/28 01:56:31;;;;;;;4.83;0.43;;;0.70;99.90;;;;;;5014804;28;20204;-51
2023/03/28 01:59:08;;;;;;;0.87;0.30;;;0.70;99.90;;;;;;5012562;28;20653;-52
2023/03/28 02:02:03;;;;;;;0.80;0.33;;;0.70;99.90;;;;;;5012774;28;20238;-50
2023/03/28 02:04:32;;;;;;;1.07;0.30;;;0.70;99.90;;;;;;5008365;28;21072;-51
2023/03/28 02:07:00;;;;;;;2.13;0.37;;;0.70;99.90;;;;;;5005262;28;20218;-50
2023/03/28 02:09:34;;;;;;;1.87;0.37;;;0.60;99.90;;;;;;4999918;28;20203;-51
2023/03/28 02:12:15;;;;;;;0.73;0.53;;;0.60;99.90;;;;;;5017183;28;20276;-53
2023/03/28 02:14:58;;;;;;;0.10;0.10;;;0.60;99.90;;;;;;5008437;28;20223;-50
2023/03/28 02:17:50;;;;;;;0.60;0.40;;;0.60;99.90;;;;;;5013559;28;20233;-51
2023/03/28 02:20:41;;;;;;;0.93;0.30;;;0.60;99.90;;;;;;5008126;28;20290;-51
2023/03/28 02:23:39;;;;;;;3.00;0.63;;;0.60;99.90;;;;;;4995495;28;20341;-52
2023/03/28 02:26:26;;;;;;;0.63;0.40;;;0.50;99.90;;;;;;5017284;28;20929;-53
2023/03/28 02:29:16;;;;;;;0.93;0.27;;;0.50;99.90;;;;;;5010881;28;20226;-53
2023/03/28 02:31:52;;;;;;;2.03;0.40;;;0.50;99.90;;;;;;5011923;28;20203;-49
2023/03/28 02:34:19;;;;;;;0.37;0.37;;;0.50;99.90;;;;;;5022271;28;20306;-52
2023/03/28 02:36:56;;;;;;;2.30;0.67;;;0.50;99.90;;;;;;5005569;28;20207;-50
2023/03/28 02:39:47;;;;;;;4.70;0.30;;;0.40;99.90;;;;;;4971708;28;20244;-50
2023/03/28 02:42:51;;;;;;;1.00;0.40;;;0.40;99.90;;;;;;5043140;28;20607;-54
2023/03/28 02:46:06;;;;;;;1.00;0.63;;;0.40;99.90;;;;;;4997758;28;20287;-51
2023/03/28 02:48:52;;;;;;;0.50;0.40;;;0.40;99.90;;;;;;5012736;28;20218;-51
2023/03/28 02:51:29;;;;;;;1.13;0.60;;;0.40;99.90;;;;;;5003542;28;20813;-50
2023/03/28 02:54:02;;;;;;;0.77;0.30;;;0.40;99.90;;;;;;5005782;28;20227;-54
2023/03/28 02:56:40;;;;;;;3.40;0.73;;;0.30;99.90;;;;;;4999760;28;20191;-53
2023/03/28 02:59:17;;;;;;;0.50;0.30;;;0.20;99.90;;;;;;5015164;28;20221;-53
2023/03/28 03:01:44;;;;;;;0.90;0.47;;;0.20;99.90;;;;;;5007836;28;20217;-52
2023/03/28 03:04:12;;;;;;;3.10;0.50;;;0.20;99.90;;;;;;5023807;28;20285;-53
2023/03/28 03:06:41;;;;;;;2.53;0.50;;;0.10;99.90;;;;;;5017124;28;20758;-50
2023/03/28 03:09:08;;;;;;;2.00;0.40;;;0.10;99.90;;;;;;5002019;28;20233;-54
2023/03/28 03:11:35;;;;;;;0.83;0.40;;;0.10;99.90;;;;;;4998783;28;20234;-51
2023/03/28 03:14:02;;;;;;;0.77;0.37;;;0.10;99.90;;;;;;5025617;28;20810;-53
2023/03/28 03:16:51;;;;;;;1.93;0.40;;;0.00;99.90;;;;;;5007789;28;20216;-51
2023/03/28 03:19:19;;;;;;;1.30;0.60;;;0.00;99.90;;;;;;5008843;28;20281;-50
2023/03/28 03:21:48;;;;;;;0.50;0.50;;;0.00;99.90;;;;;;5023366;28;20193;-50
2023/03/28 03:24:16;;;;;;;0.53;0.40;;;0.00;99.90;;;;;;5001371;28;20684;-51
2023/03/28 03:26:44;;;;;;;0.73;0.60;;;0.00;99.90;;;;;;4998195;28;20202;-53
2023/03/28 03:29:15;;;;;;;1.00;0.30;;;-0.10;99.90;;;;;;5015289;28;20720;-51
2023/03/28 03:31:44;;;;;;;1.80;0.60;;;-0.10;99.90;;;;;;5000121;28;20192;-49
2023/03/28 03:34:35;;;;;;;0.83;0.40;;;-0.10;99.90;;;;;;5009647;28;20205;-53
2023/03/28 03:37:03;;;;;;;1.23;0.40;;;-0.20;99.90;;;;;;5010041;28;20292;-53
2023/03/28 03:39:29;;;;;;;1.53;0.50;;;-0.20;99.90;;;;;;5001764;28;20209;-51
2023/03/28 03:41:56;;;;;;;4.70;0.80;;;-0.20;99.90;;;;;;4994972;28;20795;-54
2023/03/28 03:44:45;;;;;;;0.83;0.53;;;-0.20;99.90;;;;;;5023024;28;20313;-51
2023/03/28 03:47:15;;;;;;;1.53;0.60;;;-0.20;99.90;;;;;;4998850;28;20200;-51
2023/03/28 03:49:43;;;;;;;3.40;0.47;;;-0.30;99.90;;;;;;5020331;28;20201;-50
2023/03/28 03:52:11;;;;;;;3.83;1.10;;;-0.30;99.90;;;;;;5012095;28;20252;-53
2023/03/28 03:54:38;;;;;;;5.50;1.07;;;-0.20;99.90;;;;;;5004825;28;20229;-50
2023/03/28 03:57:04;;;;;;;2.87;1.00;;;-0.20;99.90;;;;;;4989034;28;20215;-53
2023/03/28 03:59:31;;;;;;;1.90;0.70;;;-0.20;99.90;;;;;;5019469;28;20200;-49
2023/03/28 04:01:59;;;;;;;4.20;1.20;;;-0.20;99.90;;;;;;5006555;28;20264;-54
2023/03/28 04:04:40;;;;;;;2.40;0.70;;;-0.30;99.90;;;;;;5020024;28;20190;-52
2023/03/28 04:07:21;;;;;;;1.47;0.70;;;-0.30;99.90;;;;;;5008238;28;20290;-52
2023/03/28 04:09:50;;;;;;;3.90;1.10;;;-0.30;99.90;;;;;;5005016;28;20225;-51
2023/03/28 04:12:18;;;;;;;1.43;0.70;;;-0.30;99.90;;;;;;4984236;28;20220;-52
2023/03/28 04:14:48;;;;;;;3.23;0.87;;;-0.40;99.90;;;;;;5015534;28;20309;-55
2023/03/28 04:17:34;;;;;;;2.23;0.90;;;-0.40;99.90;;;;;;5007731;28;20790;-54
2023/03/28 04:20:10;;;;;;;3.50;0.77;;;-0.40;99.90;;;;;;5015121;28;20290;-54
2023/03/28 04:22:42;;;;;;;1.77;0.70;;;-0.40;99.90;;;;;;5005280;28;20200;-50
2023/03/28 04:25:12;;;;;;;0.43;0.40;;;-0.40;99.90;;;;;;5000683;28;20201;-54
2023/03/28 04:27:47;;;;;;;1.70;0.60;;;-0.50;99.90;;;;;;5005193;28;20223;-52
2023/03/28 04:30:16;;;;;;;2.43;0.70;;;-0.50;99.90;;;;;;4998291;28;20223;-51
2023/03/28 04:33:12;;;;;;;2.50;0.70;;;-0.50;99.90;;;;;;4996993;28;20207;-52
2023/03/28 04:35:41;;;;;;;4.50;1.40;;;-0.50;99.90;;;;;;5026978;28;20227;-52
2023/03/28 04:38:09;;;;;;;3.20;1.53;;;-0.50;99.90;;;;;;5007549;28;20216;-55
2023/03/28 04:40:38;;;;;;;2.03;0.97;;;-0.50;99.90;;;;;;5006787;28;20213;-54
2023/03/28 04:43:26;;;;;;;3.03;0.80;;;-0.60;99.90;;;;;;4997980;28;20316;-51
2023/03/28 04:45:54;;;;;;;1.03;0.73;;;-0.60;99.90;;;;;;4999372;28;20601;-55
2023/03/28 04:48:22;;;;;;;2.77;0.80;;;-0.60;99.90;;;;;;5009909;28;20229;-53
2023/03/28 04:50:49;;;;;;;1.73;0.70;;;-0.60;99.90;;;;;;5010725;28;20611;-53
2023/03/28 04:53:18;;;;;;;2.33;0.77;;;-0.70;99.90;;;;;;5007720;28;20927;-54
2023/03/28 04:56:07;;;;;;;3.20;0.90;;;-0.60;99.90;;;;;;4994198;28;20316;-54
2023/03/28 04:58:35;;;;;;;4.43;1.33;;;-0.60;99.90;;;;;;5001911;28;20237;-53
2023/03/28 05:01:02;;;;;;;1.50;0.90;;;-0.60;99.90;;;;;;4983373;28;20212;-52
2023/03/28 05:03:58;;;;;;;1.87;0.83;;;-0.60;99.90;;;;;;5003115;28;20290;-55
2023/03/28 05:06:44;;;;;;;4.00;0.80;;;-0.60;99.90;;;;;;5011509;28;20695;-54
2023/03/28 05:09:15;;;;;;;3.03;0.60;;;-0.60;99.90;;;;;;5007348;28;20339;-51
2023/03/28 05:11:43;;;;;;;0.90;0.70;;;-0.60;99.90;;;;;;5015285;28;20285;-55
2023/03/28 05:14:10;;;;;;;0.87;0.60;;;-0.60;99.90;;;;;;5007527;28;20962;-53
2023/03/28 05:16:44;;;;;;;3.23;1.33;;;-0.60;99.90;;;;;;4990019;28;20225;-55
2023/03/28 05:22:36;;;;;;;1.53;1.10;;;-0.50;99.90;;;;;;5028419;28;20217;-52
2023/03/28 05:25:07;;;;;;;4.03;0.83;;;-0.50;99.90;;;;;;5044765;28;20941;-52
2023/03/28 05:27:38;;;;;;;2.00;1.20;;;-0.50;99.90;;;;;;5004588;28;20239;-54
2023/03/28 05:30:06;;;;;;;2.43;1.30;;;-0.50;99.90;;;;;;4985450;28;20205;-55
2023/03/28 05:32:33;;;;;;;2.27;1.10;;;-0.50;99.90;;;;;;5031352;28;20311;-52
2023/03/28 05:35:01;;;;;;;2.40;1.17;;;-0.50;99.90;;;;;;4998706;28;20205;-50
2023/03/28 05:37:31;;;;;;;1.37;1.10;;;-0.40;99.90;;;;;;5009942;28;20586;-53
2023/03/28 05:40:00;;;;;;;1.13;1.07;;;-0.50;99.90;;;;;;5015390;28;20255;-52
2023/03/28 05:42:28;;;;;;;2.33;1.10;;;-0.50;99.90;;;;;;5007149;28;20300;-53
2023/03/28 05:44:55;;;;;;;2.07;1.10;;;-0.40;99.90;;;;;;4990231;28;20220;-53
2023/03/28 05:47:54;;;;;;;2.30;1.10;;;-0.40;99.90;;;;;;5006368;28;20236;-55
2023/03/28 05:50:39;;;;;;;2.47;1.00;;;-0.40;99.90;;;;;;5012348;28;20264;-55
2023/03/28 05:53:06;;;;;;;1.13;1.03;;;-0.30;99.90;;;;;;5007507;28;20220;-53
2023/03/28 05:55:33;;;;;;;2.53;1.20;;;-0.30;99.90;;;;;;5047714;28;20214;-57
2023/03/28 05:58:02;;;;;;;3.43;1.57;;;-0.30;99.90;;;;;;5007547;28;20229;-54
2023/03/28 06:00:37;;;;;;;4.63;1.40;;;-0.30;99.90;;;;;;4999009;28;20256;-55
2023/03/28 06:03:08;;;;;;;3.40;1.17;;;-0.20;99.90;;;;;;5009337;28;20192;-52
2023/03/28 06:05:38;;;;;;;1.30;1.20;;;-0.10;99.90;;;;;;4994399;28;20965;-54
2023/03/28 06:08:11;;;;;;;3.67;1.70;;;-0.10;99.90;;;;;;5016034;28;20236;-52
2023/03/28 06:10:38;;;;;;;2.27;1.40;;;0.00;99.90;;;;;;5008514;28;20215;-54
2023/03/28 06:13:18;;;;;;;2.73;1.73;;;0.10;99.90;;;;;;5011906;28;20210;-54
2023/03/28 06:16:07;;;;;;;4.20;1.53;;;0.10;99.90;;;;;;5010674;28;20227;-54
2023/03/28 06:18:36;;;;;;;7.07;1.60;;;0.20;99.90;;;;;;4997343;28;21191;-54
2023/03/28 06:21:04;;;;;;;3.93;1.50;;;0.30;99.90;;;;;;5010779;28;20216;-52
2023/03/28 06:23:31;;;;;;;2.07;1.83;;;0.40;99.90;;;;;;5052422;28;20217;-54
2023/03/28 06:26:00;;;;;;;7.17;1.27;;;0.50;99.90;;;;;;5012797;28;21057;-53
2023/03/28 06:28:34;;;;;;;2.63;1.53;;;0.60;99.90;;;;;;5016139;28;20264;-54
2023/03/28 06:31:18;;;;;;;2.83;1.30;;;0.80;99.90;;;;;;5006219;28;20256;-53
2023/03/28 06:34:04;;;;;;;5.27;2.20;;;0.90;99.90;;;;;;5000136;28;20211;-54
2023/03/28 06:36:33;;;;;;;3.77;1.80;;;1.00;99.90;;;;;;5002976;28;20270;-52
2023/03/28 06:39:00;;;;;;;7.27;1.60;;;1.10;99.90;;;;;;5009590;28;20313;-52
2023/03/28 06:41:30;;;;;;;3.23;1.60;;;1.20;99.90;;;;;;5002654;28;20969;-54
2023/03/28 06:43:58;;;;;;;4.50;2.67;;;1.30;99.90;;;;;;5012350;28;20207;-52
2023/03/28 06:46:48;;;;;;;4.97;1.47;;;1.40;99.90;;;;;;4998899;28;20197;-54
2023/03/28 06:49:16;;;;;;;5.23;1.57;;;1.50;99.90;;;;;;4994603;28;20701;-53
2023/03/28 06:52:01;;;;;;;9.90;1.67;;;1.60;99.90;;;;;;5012120;28;20813;-53
2023/03/28 06:54:29;;;;;;;7.67;1.80;;;1.70;99.90;;;;;;4998741;28;20811;-52
2023/03/28 06:56:56;;;;;;;3.90;1.40;;;1.80;99.90;;;;;;5012945;28;20219;-51
2023/03/28 06:59:46;;;;;;;4.13;1.50;;;1.90;99.90;;;;;;5012479;28;20218;-53
2023/03/28 07:02:31;;;;;;;5.07;1.70;;;2.00;99.90;;;;;;4992085;28;20257;-52
2023/03/28 07:05:04;;;;;;;6.47;1.50;;;2.10;99.90;;;;;;5019859;28;20203;-55
2023/03/28 07:07:32;;;;;;;4.70;1.40;;;2.20;99.90;;;;;;5015197;28;20253;-52
2023/03/28 07:09:59;;;;;;;10.70;1.87;;;2.30;99.90;;;;;;5005588;28;20204;-52
2023/03/28 07:12:26;;;;;;;5.83;1.47;;;2.30;99.90;;;;;;5010156;28;20207;-53
2023/03/28 07:14:55;;;;;;;8.53;1.93;;;2.40;99.90;;;;;;5016928;28;20246;-50
2023/03/28 07:17:22;;;;;;;5.63;1.73;;;2.50;99.90;;;;;;4992674;28;20235;-54
2023/03/28 07:19:50;;;;;;;6.77;1.70;;;2.60;99.90;;;;;;5014070;28;20202;-49
2023/03/28 07:22:38;;;;;;;9.30;2.10;;;2.70;99.90;;;;;;5001649;28;20907;-51
2023/03/28 07:25:06;;;;;;;6.60;1.60;;;2.80;99.90;;;;;;5005465;28;20612;-52
2023/03/28 07:27:34;;;;;;;4.97;1.90;;;2.90;99.90;;;;;;4998866;28;20354;-53
2023/03/28 07:30:20;;;;;;;7.93;2.00;;;3.00;99.90;;;;;;5009125;28;20341;-53
2023/03/28 07:32:48;;;;;;;5.00;1.33;;;3.10;99.90;;;;;;5005991;28;20228;-54
2023/03/28 07:35:15;;;;;;;4.87;1.33;;;3.20;99.90;;;;;;5009757;28;20294;-53
2023/03/28 07:37:47;;;;;;;8.03;1.53;;;3.30;99.90;;;;;;4996850;28;20225;-50
2023/03/28 07:40:30;;;;;;;5.10;1.20;;;3.40;99.90;;;;;;4995365;28;20197;-54
2023/03/28 07:42:58;;;;;;;4.97;1.60;;;3.50;99.90;;;;;;5047546;28;20195;-52
2023/03/28 07:45:26;;;;;;;4.50;1.40;;;3.60;99.90;;;;;;5013301;28;20202;-54
2023/03/28 07:48:12;;;;;;;5.73;1.60;;;3.80;99.90;;;;;;5007366;28;20230;-53
2023/03/28 07:50:41;;;;;;;9.80;1.57;;;3.90;99.90;;;;;;5014126;28;20203;-50
2023/03/28 07:53:10;;;;;;;5.40;1.67;;;4.00;99.90;;;;;;4989255;28;20204;-54
2023/03/28 07:55:37;;;;;;;10.43;1.57;;;4.10;99.90;;;;;;4994753;28;20232;-52
2023/03/28 07:58:06;;;;;;;5.23;1.40;;;4.20;99.90;;;;;;5007253;28;20779;-53
2023/03/28 08:00:37;;;;;;;5.27;1.30;;;4.30;99.90;;;;;;5011095;28;20287;-54
2023/03/28 08:03:23;;;;;;;4.20;1.60;;;4.40;99.90;;;;;;4999518;28;20261;-51
2023/03/28 08:05:51;;;;;;;5.17;1.57;;;4.50;99.90;;;;;;5000991;28;20262;-54
2023/03/28 08:08:21;;;;;;;5.63;1.10;;;4.60;99.90;;;;;;4993138;28;20224;-55
2023/03/28 08:11:03;;;;;;;4.07;1.20;;;4.70;99.90;;;;;;4999985;28;20200;-52
2023/03/28 08:13:30;;;;;;;3.83;1.47;;;4.90;99.90;;;;;;5012702;28;20200;-52
2023/03/28 08:16:07;;;;;;;5.43;1.23;;;5.00;99.90;;;;;;5003016;28;20222;-53
2023/03/28 08:18:52;;;;;;;3.93;0.80;;;5.10;99.90;;;;;;5006674;28;20359;-53
2023/03/28 08:21:19;;;;;;;5.53;1.30;;;5.20;99.90;;;;;;5015773;28;20201;-51
2023/03/28 08:23:46;;;;;;;4.33;0.90;;;5.20;99.90;;;;;;4984169;28;20749;-49
2023/03/28 08:26:32;;;;;;;4.53;0.70;;;5.30;99.90;;;;;;5000760;28;20579;-53
2023/03/28 08:28:59;;;;;;;4.27;0.70;;;5.30;99.90;;;;;;5000730;28;20690;-53
2023/03/28 08:31:29;;;;;;;2.30;0.87;;;5.40;99.90;;;;;;5011502;28;20218;-54
2023/03/28 08:34:17;;;;;;;2.77;1.00;;;5.50;99.90;;;;;;5014250;28;20231;-54
2023/03/28 08:36:47;;;;;;;3.33;0.90;;;5.60;99.90;;;;;;5032065;28;20216;-52
2023/03/28 08:39:25;;;;;;;5.53;0.90;;;5.60;99.90;;;;;;4990508;28;20217;-54
2023/03/28 08:42:18;;;;;;;3.10;0.80;;;5.60;99.90;;;;;;5008421;28;20192;-49
2023/03/28 08:44:57;;;;;;;4.07;1.30;;;5.50;99.90;;;;;;5004954;28;20217;-52
2023/03/28 08:47:29;;;;;;;3.70;0.83;;;5.60;99.90;;;;;;5008232;28;20583;-53
2023/03/28 08:50:00;;;;;;;7.47;1.90;;;5.70;99.90;;;;;;5006944;28;20299;-53
2023/03/28 08:52:47;;;;;;;3.77;0.77;;;5.80;99.90;;;;;;5013212;28;21008;-52
2023/03/28 08:55:27;;;;;;;2.40;0.83;;;5.90;99.90;;;;;;4999877;28;20263;-54
2023/03/28 08:57:57;;;;;;;5.43;0.90;;;6.00;99.90;;;;;;5043986;28;20592;-52
2023/03/28 09:00:27;;;;;;;2.43;0.80;;;6.00;99.90;;;;;;5010190;28;20202;-53
2023/03/28 09:03:20;;;;;;;3.80;1.00;;;6.10;99.90;;;;;;5004328;28;20310;-52
2023/03/28 09:05:51;;;;;;;5.13;1.00;;;6.00;99.90;;;;;;5002874;28;20356;-52
2023/03/28 09:08:36;;;;;;;3.13;0.80;;;6.00;99.90;;;;;;5040464;28;20231;-53
2023/03/28 09:11:16;;;;;;;4.57;0.70;;;6.00;99.90;;;;;;4999051;28;20570;-49
2023/03/28 09:13:54;;;;;;;4.27;0.90;;;6.10;99.90;;;;;;5000249;28;20196;-55
2023/03/28 09:16:43;;;;;;;5.27;1.20;;;6.20;99.90;;;;;;5014471;28;20212;-54
2023/03/28 09:19:36;;;;;;;2.27;0.87;;;6.20;99.90;;;;;;5013998;28;20839;-54
2023/03/28 09:22:32;;;;;;;5.23;1.07;;;6.40;99.90;;;;;;5000594;28;20200;-54
2023/03/28 09:25:31;;;;;;;4.23;1.07;;;6.40;99.90;;;;;;4998169;28;20219;-54
2023/03/28 09:28:31;;;;;;;5.13;1.23;;;6.50;99.90;;;;;;4991734;28;20235;-54
2023/03/28 09:30:59;;;;;;;4.53;0.90;;;6.50;99.90;;;;;;5012504;28;21450;-53
2023/03/28 09:33:34;;;;;;;7.60;0.93;;;6.50;99.90;;;;;;5006732;28;20211;-55
2023/03/28 09:36:29;;;;;;;3.47;0.90;;;6.60;99.90;;;;;;5008669;28;20590;-54
2023/03/28 09:39:26;;;;;;;3.97;1.20;;;6.50;99.90;;;;;;5008609;28;20378;-53
2023/03/28 09:42:02;;;;;;;4.07;1.20;;;6.50;99.90;;;;;;4997941;28;20208;-50
2023/03/28 09:44:57;;;;;;;6.47;1.20;;;6.60;99.90;;;;;;4999181;28;20231;-50
2023/03/28 09:47:46;;;;;;;2.53;0.90;;;6.70;99.90;;;;;;5014061;28;20222;-53
2023/03/28 09:50:31;;;;;;;2.87;1.20;;;6.90;99.90;;;;;;5009487;28;20361;-54
2023/03/28 09:53:01;;;;;;;5.30;1.00;;;7.10;99.90;;;;;;4998757;28;20208;-55
2023/03/28 09:55:30;;;;;;;5.67;1.30;;;7.10;99.90;;;;;;4994009;28;21049;-55
2023/03/28 09:58:00;;;;;;;7.67;1.27;;;7.10;99.90;;;;;;5012224;28;20220;-52
2023/03/28 10:00:28;;;;;;;6.70;1.33;;;6.90;99.90;;;;;;4994548;28;20201;-53
2023/03/28 10:03:28;;;;;;;6.27;1.27;;;6.70;99.90;;;;;;5011057;28;20204;-53
2023/03/28 10:05:57;;;;;;;7.53;1.50;;;6.60;99.90;;;;;;5006756;28;20286;-51
2023/03/28 10:08:38;;;;;;;7.50;1.33;;;6.70;99.90;;;;;;5005141;28;20222;-53
2023/03/28 10:11:17;;;;;;;3.20;1.40;;;6.70;99.90;;;;;;5006286;28;20220;-55
2023/03/28 10:13:47;;;;;;;6.33;1.30;;;6.60;99.90;;;;;;4989284;28;20338;-53
2023/03/28 10:16:17;;;;;;;5.97;1.07;;;6.70;99.90;;;;;;5015810;28;20201;-54
2023/03/28 10:18:54;;;;;;;3.63;1.27;;;6.60;99.90;;;;;;5018106;28;20227;-53
2023/03/28 10:21:32;;;;;;;8.83;1.10;;;6.60;99.90;;;;;;5005371;28;20210;-55
2023/03/28 10:24:14;;;;;;;4.60;1.13;;;6.70;99.90;;;;;;5005385;28;20212;-54
2023/03/28 10:26:46;;;;;;;6.00;1.10;;;6.80;99.90;;;;;;4981826;28;20224;-53
2023/03/28 10:29:15;;;;;;;8.10;1.03;;;6.80;99.90;;;;;;5001545;28;20226;-50
2023/03/28 10:31:47;;;;;;;1.73;1.00;;;6.90;99.90;;;;;;5013369;28;20311;-51
2023/03/28 10:34:34;;;;;;;2.43;0.83;;;7.00;99.90;;;;;;5014606;28;20238;-54
2023/03/28 10:37:24;;;;;;;3.87;0.97;;;7.00;99.90;;;;;;5004393;28;20346;-53
2023/03/28 10:40:24;;;;;;;3.73;1.33;;;7.10;99.90;;;;;;5008724;28;20293;-50
2023/03/28 10:43:12;;;;;;;6.37;1.40;;;7.10;99.90;;;;;;4989663;28;20243;-51
2023/03/28 10:45:52;;;;;;;4.53;0.90;;;7.00;99.90;;;;;;5006927;28;20208;-53
2023/03/28 10:48:32;;;;;;;4.93;0.80;;;7.10;99.90;;;;;;4999491;28;20227;-53
2023/03/28 10:51:09;;;;;;;4.77;1.27;;;7.10;99.90;;;;;;5010669;28;20748;-52
2023/03/28 10:54:16;;;;;;;3.97;0.90;;;7.00;99.90;;;;;;4998942;28;20211;-53
2023/03/28 10:56:51;;;;;;;9.17;1.00;;;7.00;99.90;;;;;;4947066;28;20233;-55
2023/03/28 10:59:39;;;;;;;5.30;1.10;;;7.00;99.90;;;;;;4980161;28;20300;-55
2023/03/28 11:02:27;;;;;;;6.07;1.70;;;7.00;99.90;;;;;;5043678;28;20970;-56
2023/03/28 11:04:59;;;;;;;3.00;1.10;;;7.10;99.90;;;;;;5011969;28;20257;-53
2023/03/28 11:07:33;;;;;;;6.33;0.60;;;7.10;99.90;;;;;;4998797;28;20293;-56
2023/03/28 11:10:36;;;;;;;5.63;0.60;;;7.10;99.90;;;;;;5008260;28;20208;-53
2023/03/28 11:13:24;;;;;;;1.97;0.60;;;7.10;99.90;;;;;;5019863;28;20204;-58
2023/03/28 11:15:58;;;;;;;2.10;0.80;;;7.30;99.90;;;;;;4998327;28;20203;-55
2023/03/28 11:18:45;;;;;;;4.20;0.67;;;7.40;99.90;;;;;;5003792;28;20363;-56
2023/03/28 11:21:25;;;;;;;4.97;1.03;;;7.50;99.90;;;;;;5006463;28;20207;-52
2023/03/28 11:24:02;;;;;;;3.23;0.80;;;7.60;99.90;;;;;;5004093;28;20298;-55
2023/03/28 11:26:38;;;;;;;1.40;0.57;;;7.70;99.90;;;;;;4995733;28;20235;-55
2023/03/28 11:29:32;;;;;;;2.47;0.93;;;7.80;99.90;;;;;;4990584;28;20321;-55
2023/03/28 11:32:08;;;;;;;4.70;0.73;;;7.80;99.90;;;;;;5006153;28;20282;-57
2023/03/28 11:34:42;;;;;;;1.87;0.70;;;7.90;99.90;;;;;;5008662;28;20278;-58
2023/03/28 11:37:17;;;;;;;4.03;1.00;;;8.00;99.90;;;;;;5019348;28;20315;-57
2023/03/28 11:39:49;;;;;;;2.23;0.80;;;8.00;99.90;;;;;;4996785;28;20215;-57
2023/03/28 11:42:28;;;;;;;3.67;0.70;;;7.90;99.90;;;;;;5040462;28;20558;-56
2023/03/28 11:45:05;;;;;;;5.00;1.70;;;7.80;99.90;;;;;;4986755;28;20204;-56
2023/03/28 11:47:36;;;;;;;3.90;0.87;;;7.70;99.90;;;;;;5019427;28;20211;-57
2023/03/28 11:50:16;;;;;;;3.63;0.70;;;7.80;99.90;;;;;;5014461;28;20206;-56
2023/03/28 11:53:02;;;;;;;3.90;1.10;;;7.80;99.90;;;;;;5008408;28;20211;-54
2023/03/28 11:55:38;;;;;;;2.63;0.77;;;7.80;99.90;;;;;;5002880;28;20230;-58
2023/03/28 11:58:19;;;;;;;3.07;0.73;;;7.80;99.90;;;;;;5002001;28;20762;-57
2023/03/28 12:00:56;;;;;;;1.93;0.60;;;7.90;99.90;;;;;;5001509;28;20366;-58
2023/03/28 12:03:29;;;;;;;4.27;0.70;;;7.90;99.90;;;;;;4992702;28;20889;-58
2023/03/28 12:06:01;;;;;;;2.90;1.00;;;7.90;99.90;;;;;;5015413;28;20290;-57
2023/03/28 12:08:34;;;;;;;3.47;0.90;;;7.90;99.90;;;;;;5013382;28;20215;-57
2023/03/28 12:11:06;;;;;;;2.97;0.50;;;7.90;99.90;;;;;;5009322;28;20253;-57
2023/03/28 12:13:53;;;;;;;4.87;0.83;;;7.80;99.90;;;;;;4995935;28;20203;-57
2023/03/28 12:16:27;;;;;;;5.60;0.93;;;7.60;99.90;;;;;;4997308;28;20209;-56
2023/03/28 12:18:57;;;;;;;5.97;0.93;;;7.60;99.90;;;;;;5010647;28;20951;-56
2023/03/28 12:21:44;;;;;;;3.50;1.47;;;7.60;99.90;;;;;;5026519;28;20215;-58
2023/03/28 12:24:23;;;;;;;6.40;1.27;;;7.50;99.90;;;;;;5031464;28;20729;-55
2023/03/28 12:27:13;;;;;;;1.97;1.03;;;7.50;99.90;;;;;;5002685;28;20339;-56
2023/03/28 12:29:46;;;;;;;4.67;1.23;;;7.50;99.90;;;;;;5002140;28;20212;-58
2023/03/28 12:32:34;;;;;;;2.90;1.13;;;7.50;99.90;;;;;;5002533;28;20230;-55
2023/03/28 12:35:12;;;;;;;5.20;1.53;;;7.60;99.90;;;;;;5008242;28;20204;-51
2023/03/28 12:37:58;;;;;;;6.30;1.07;;;7.50;99.90;;;;;;5016830;28;20227;-54
2023/03/28 12:40:33;;;;;;;3.50;1.13;;;7.50;99.90;;;;;;5007410;28;20279;-57
2023/03/28 12:43:00;;;;;;;2.40;0.90;;;7.40;99.90;;;;;;5010213;28;20750;-57
2023/03/28 12:45:40;;;;;;;4.23;1.30;;;7.40;99.90;;;;;;5008744;28;20299;-56
2023/03/28 12:48:15;;;;;;;1.73;0.60;;;7.40;99.90;;;;;;4991266;28;20321;-57
2023/03/28 12:50:48;;;;;;;5.50;1.20;;;7.50;99.90;;;;;;5012612;28;20285;-54
2023/03/28 12:53:16;;;;;;;4.57;0.80;;;7.50;99.90;;;;;;5014042;28;20197;-57
2023/03/28 12:55:46;;;;;;;3.00;1.10;;;7.40;99.90;;;;;;5010673;28;20613;-55
2023/03/28 12:58:22;;;;;;;4.23;1.30;;;7.50;99.90;;;;;;5004690;28;20220;-56
2023/03/28 13:01:29;;;;;;;6.70;1.17;;;7.50;99.90;;;;;;4992869;28;20212;-57
2023/03/28 13:04:26;;;;;;;3.77;1.10;;;7.40;99.90;;;;;;4996075;28;20561;-52
2023/03/28 13:07:07;;;;;;;3.63;0.90;;;7.30;99.90;;;;;;4998252;28;20270;-55
2023/03/28 13:09:50;;;;;;;3.10;0.90;;;7.30;99.90;;;;;;5010589;28;20215;-55
2023/03/28 13:12:29;;;;;;;3.83;0.97;;;7.10;99.90;;;;;;5017941;28;20204;-55
2023/03/28 13:15:02;;;;;;;2.27;0.70;;;7.00;99.90;;;;;;5002337;28;20200;-57
2023/03/28 13:17:32;;;;;;;6.00;1.07;;;7.00;99.90;;;;;;5005321;28;20224;-56
2023/03/28 13:20:24;;;;;;;2.63;1.03;;;7.00;99.90;;;;;;4998084;28;20216;-56
2023/03/28 13:22:53;;;;;;;4.47;1.90;;;7.10;99.90;;;;;;4997954;28;20223;-55
2023/03/28 13:25:28;;;;;;;7.83;1.30;;;7.20;99.90;;;;;;5010744;28;20184;-57
2023/03/28 13:27:59;;;;;;;3.83;1.27;;;7.30;99.90;;;;;;5009996;28;20220;-55
2023/03/28 13:30:28;;;;;;;5.67;1.27;;;7.40;99.90;;;;;;5006404;28;20257;-53
2023/03/28 13:32:57;;;;;;;5.10;1.27;;;7.60;99.90;;;;;;5000948;28;20200;-56
2023/03/28 13:36:13;;;;;;;4.87;1.60;;;7.80;99.90;;;;;;4997290;28;20205;-57
2023/03/28 13:38:46;;;;;;;9.30;1.40;;;8.10;99.90;;;;;;4924933;28;20613;-55
2023/03/28 13:41:34;;;;;;;5.83;1.10;;;8.00;99.90;;;;;;5009585;28;20387;-55
2023/03/28 13:44:05;;;;;;;2.90;1.10;;;7.80;99.90;;;;;;5005369;28;20266;-56
2023/03/28 13:46:36;;;;;;;5.43;1.20;;;7.70;99.90;;;;;;5007695;28;20208;-54